sensor_id;sensor_type;location;lat;lon;timestamp;P1;durP1;ratioP1;P2;durP2;ratioP2
72621;SDS011;60665;53.506;9.582;2024-02-16T00:01:58;7.75;;;2.60;;
72621;SDS011;60665;53.506;9.582;2024-02-16T00:04:23;4.65;;;2.10;;
72621;SDS011;60665;53.506;9.582;2024-02-16T00:06:48;7.65;;;2.05;;
72621;SDS011;60665;53.506;9.582;2024-02-16T00:09:14;4.57;;;2.00;;
72621;SDS011;60665;53.506;9.582;2024-02-16T00:11:39;6.25;;;2.30;;
72621;SDS011;60665;53.506;9.582;2024-02-16T00:14:04;8.75;;;2.17;;
72621;SDS011;60665;53.506;9.582;2024-02-16T00:16:30;5.50;;;2.50;;
72621;SDS011;60665;53.506;9.582;2024-02-16T00:18:55;12.65;;;2.50;;
72621;SDS011;60665;53.506;9.582;2024-02-16T00:21:20;7.47;;;2.20;;
72621;SDS011;60665;53.506;9.582;2024-02-16T00:23:46;6.85;;;2.28;;
72621;SDS011;60665;53.506;9.582;2024-02-16T00:26:11;6.50;;;2.35;;
72621;SDS011;60665;53.506;9.582;2024-02-16T00:28:36;7.53;;;2.47;;
72621;SDS011;60665;53.506;9.582;2024-02-16T00:31:02;4.73;;;2.03;;
72621;SDS011;60665;53.506;9.582;2024-02-16T00:33:27;7.43;;;2.00;;
72621;SDS011;60665;53.506;9.582;2024-02-16T00:35:54;6.55;;;1.63;;
72621;SDS011;60665;53.506;9.582;2024-02-16T00:38:19;7.68;;;2.00;;
72621;SDS011;60665;53.506;9.582;2024-02-16T00:40:44;5.80;;;2.17;;
72621;SDS011;60665;53.506;9.582;2024-02-16T00:43:10;7.10;;;2.03;;
72621;SDS011;60665;53.506;9.582;2024-02-16T00:45:35;5.75;;;1.63;;
72621;SDS011;60665;53.506;9.582;2024-02-16T00:48:00;7.10;;;1.88;;
72621;SDS011;60665;53.506;9.582;2024-02-16T00:50:27;4.50;;;2.03;;
72621;SDS011;60665;53.506;9.582;2024-02-16T00:52:52;4.22;;;1.70;;
72621;SDS011;60665;53.506;9.582;2024-02-16T00:55:17;4.10;;;1.73;;
72621;SDS011;60665;53.506;9.582;2024-02-16T00:57:43;5.10;;;1.90;;
72621;SDS011;60665;53.506;9.582;2024-02-16T01:00:08;3.67;;;1.70;;
72621;SDS011;60665;53.506;9.582;2024-02-16T01:02:34;4.35;;;1.88;;
72621;SDS011;60665;53.506;9.582;2024-02-16T01:04:59;6.07;;;2.10;;
72621;SDS011;60665;53.506;9.582;2024-02-16T01:07:27;5.20;;;2.15;;
72621;SDS011;60665;53.506;9.582;2024-02-16T01:09:52;5.18;;;1.90;;
72621;SDS011;60665;53.506;9.582;2024-02-16T01:12:17;5.60;;;2.05;;
72621;SDS011;60665;53.506;9.582;2024-02-16T01:14:43;6.13;;;1.90;;
72621;SDS011;60665;53.506;9.582;2024-02-16T01:17:08;6.45;;;2.00;;
72621;SDS011;60665;53.506;9.582;2024-02-16T01:19:33;5.28;;;1.95;;
72621;SDS011;60665;53.506;9.582;2024-02-16T01:21:58;4.28;;;1.90;;
72621;SDS011;60665;53.506;9.582;2024-02-16T01:24:25;5.00;;;1.92;;
72621;SDS011;60665;53.506;9.582;2024-02-16T01:26:50;5.38;;;2.00;;
72621;SDS011;60665;53.506;9.582;2024-02-16T01:29:16;9.35;;;1.90;;
72621;SDS011;60665;53.506;9.582;2024-02-16T01:31:41;5.30;;;1.80;;
72621;SDS011;60665;53.506;9.582;2024-02-16T01:34:06;6.17;;;1.83;;
72621;SDS011;60665;53.506;9.582;2024-02-16T01:36:32;4.80;;;1.67;;
72621;SDS011;60665;53.506;9.582;2024-02-16T01:38:57;4.57;;;1.80;;
72621;SDS011;60665;53.506;9.582;2024-02-16T01:41:22;6.37;;;1.63;;
72621;SDS011;60665;53.506;9.582;2024-02-16T01:43:47;4.60;;;1.70;;
72621;SDS011;60665;53.506;9.582;2024-02-16T01:46:13;6.13;;;1.83;;
72621;SDS011;60665;53.506;9.582;2024-02-16T01:48:38;3.30;;;1.70;;
72621;SDS011;60665;53.506;9.582;2024-02-16T01:51:06;4.70;;;1.80;;
72621;SDS011;60665;53.506;9.582;2024-02-16T01:53:33;4.50;;;2.17;;
72621;SDS011;60665;53.506;9.582;2024-02-16T01:55:59;5.15;;;1.98;;
72621;SDS011;60665;53.506;9.582;2024-02-16T01:58:24;7.70;;;1.92;;
72621;SDS011;60665;53.506;9.582;2024-02-16T02:00:49;4.07;;;1.70;;
72621;SDS011;60665;53.506;9.582;2024-02-16T02:03:14;4.78;;;1.75;;
72621;SDS011;60665;53.506;9.582;2024-02-16T02:05:44;5.55;;;1.90;;
72621;SDS011;60665;53.506;9.582;2024-02-16T02:08:11;5.22;;;1.92;;
72621;SDS011;60665;53.506;9.582;2024-02-16T02:10:36;5.82;;;2.13;;
72621;SDS011;60665;53.506;9.582;2024-02-16T02:13:01;4.23;;;1.60;;
72621;SDS011;60665;53.506;9.582;2024-02-16T02:15:27;5.28;;;1.67;;
72621;SDS011;60665;53.506;9.582;2024-02-16T02:17:52;7.07;;;1.95;;
72621;SDS011;60665;53.506;9.582;2024-02-16T02:20:18;4.57;;;1.87;;
72621;SDS011;60665;53.506;9.582;2024-02-16T02:22:43;3.67;;;1.60;;
72621;SDS011;60665;53.506;9.582;2024-02-16T02:25:08;5.77;;;1.90;;
72621;SDS011;60665;53.506;9.582;2024-02-16T02:27:35;4.60;;;1.90;;
72621;SDS011;60665;53.506;9.582;2024-02-16T02:30:01;4.38;;;1.85;;
72621;SDS011;60665;53.506;9.582;2024-02-16T02:32:26;4.15;;;1.80;;
72621;SDS011;60665;53.506;9.582;2024-02-16T02:34:51;7.15;;;2.03;;
72621;SDS011;60665;53.506;9.582;2024-02-16T02:37:16;5.10;;;2.00;;
72621;SDS011;60665;53.506;9.582;2024-02-16T02:39:42;6.47;;;2.03;;
72621;SDS011;60665;53.506;9.582;2024-02-16T02:42:09;4.57;;;1.92;;
72621;SDS011;60665;53.506;9.582;2024-02-16T02:44:35;9.50;;;1.80;;
72621;SDS011;60665;53.506;9.582;2024-02-16T02:47:00;7.37;;;2.00;;
72621;SDS011;60665;53.506;9.582;2024-02-16T02:49:25;5.00;;;2.10;;
72621;SDS011;60665;53.506;9.582;2024-02-16T02:51:51;5.53;;;1.80;;
72621;SDS011;60665;53.506;9.582;2024-02-16T02:54:16;9.93;;;2.28;;
72621;SDS011;60665;53.506;9.582;2024-02-16T02:56:41;5.50;;;1.98;;
72621;SDS011;60665;53.506;9.582;2024-02-16T02:59:07;4.72;;;1.67;;
72621;SDS011;60665;53.506;9.582;2024-02-16T03:01:33;4.53;;;1.80;;
72621;SDS011;60665;53.506;9.582;2024-02-16T03:03:59;5.15;;;2.10;;
72621;SDS011;60665;53.506;9.582;2024-02-16T03:06:25;5.70;;;2.33;;
72621;SDS011;60665;53.506;9.582;2024-02-16T03:08:50;3.92;;;1.83;;
72621;SDS011;60665;53.506;9.582;2024-02-16T03:11:16;5.30;;;1.80;;
72621;SDS011;60665;53.506;9.582;2024-02-16T03:13:42;4.63;;;1.90;;
72621;SDS011;60665;53.506;9.582;2024-02-16T03:16:07;7.32;;;1.88;;
72621;SDS011;60665;53.506;9.582;2024-02-16T03:18:33;5.57;;;1.58;;
72621;SDS011;60665;53.506;9.582;2024-02-16T03:21:02;5.30;;;1.80;;
72621;SDS011;60665;53.506;9.582;2024-02-16T03:23:27;3.15;;;1.50;;
72621;SDS011;60665;53.506;9.582;2024-02-16T03:25:52;3.90;;;1.60;;
72621;SDS011;60665;53.506;9.582;2024-02-16T03:28:18;3.75;;;1.60;;
72621;SDS011;60665;53.506;9.582;2024-02-16T03:30:43;4.87;;;1.73;;
72621;SDS011;60665;53.506;9.582;2024-02-16T03:33:09;7.70;;;1.80;;
72621;SDS011;60665;53.506;9.582;2024-02-16T03:35:35;4.15;;;1.77;;
72621;SDS011;60665;53.506;9.582;2024-02-16T03:38:01;4.07;;;1.50;;
72621;SDS011;60665;53.506;9.582;2024-02-16T03:40:26;5.53;;;1.80;;
72621;SDS011;60665;53.506;9.582;2024-02-16T03:42:51;4.75;;;1.45;;
72621;SDS011;60665;53.506;9.582;2024-02-16T03:45:17;4.47;;;1.75;;
72621;SDS011;60665;53.506;9.582;2024-02-16T03:47:42;6.28;;;2.10;;
72621;SDS011;60665;53.506;9.582;2024-02-16T03:50:08;6.00;;;1.58;;
72621;SDS011;60665;53.506;9.582;2024-02-16T03:52:34;3.40;;;1.60;;
72621;SDS011;60665;53.506;9.582;2024-02-16T03:54:59;4.50;;;1.75;;
72621;SDS011;60665;53.506;9.582;2024-02-16T03:57:24;3.70;;;1.58;;
72621;SDS011;60665;53.506;9.582;2024-02-16T03:59:50;5.38;;;1.52;;
72621;SDS011;60665;53.506;9.582;2024-02-16T04:02:15;4.18;;;1.73;;
72621;SDS011;60665;53.506;9.582;2024-02-16T04:04:41;4.95;;;1.60;;
72621;SDS011;60665;53.506;9.582;2024-02-16T04:07:06;5.00;;;1.70;;
72621;SDS011;60665;53.506;9.582;2024-02-16T04:09:32;4.85;;;1.88;;
72621;SDS011;60665;53.506;9.582;2024-02-16T04:11:57;5.18;;;1.50;;
72621;SDS011;60665;53.506;9.582;2024-02-16T04:14:22;6.27;;;1.70;;
72621;SDS011;60665;53.506;9.582;2024-02-16T04:16:48;3.27;;;1.33;;
72621;SDS011;60665;53.506;9.582;2024-02-16T04:19:14;4.75;;;1.83;;
72621;SDS011;60665;53.506;9.582;2024-02-16T04:21:39;6.47;;;1.88;;
72621;SDS011;60665;53.506;9.582;2024-02-16T04:24:04;6.17;;;2.03;;
72621;SDS011;60665;53.506;9.582;2024-02-16T04:26:30;4.30;;;1.25;;
72621;SDS011;60665;53.506;9.582;2024-02-16T04:28:55;4.32;;;1.65;;
72621;SDS011;60665;53.506;9.582;2024-02-16T04:31:20;7.17;;;1.50;;
72621;SDS011;60665;53.506;9.582;2024-02-16T04:33:46;3.97;;;1.58;;
72621;SDS011;60665;53.506;9.582;2024-02-16T04:36:12;3.85;;;1.48;;
72621;SDS011;60665;53.506;9.582;2024-02-16T04:38:37;3.72;;;1.50;;
72621;SDS011;60665;53.506;9.582;2024-02-16T04:41:04;4.85;;;1.60;;
72621;SDS011;60665;53.506;9.582;2024-02-16T04:43:29;4.28;;;1.40;;
72621;SDS011;60665;53.506;9.582;2024-02-16T04:45:55;3.83;;;1.70;;
72621;SDS011;60665;53.506;9.582;2024-02-16T04:48:20;3.70;;;1.67;;
72621;SDS011;60665;53.506;9.582;2024-02-16T04:50:46;4.90;;;1.50;;
72621;SDS011;60665;53.506;9.582;2024-02-16T04:53:11;6.00;;;1.60;;
72621;SDS011;60665;53.506;9.582;2024-02-16T04:55:36;4.97;;;1.60;;
72621;SDS011;60665;53.506;9.582;2024-02-16T04:58:01;3.63;;;1.40;;
72621;SDS011;60665;53.506;9.582;2024-02-16T05:00:29;4.75;;;1.60;;
72621;SDS011;60665;53.506;9.582;2024-02-16T05:02:55;4.05;;;1.50;;
72621;SDS011;60665;53.506;9.582;2024-02-16T05:05:20;5.20;;;1.80;;
72621;SDS011;60665;53.506;9.582;2024-02-16T05:07:48;6.15;;;1.60;;
72621;SDS011;60665;53.506;9.582;2024-02-16T05:10:14;5.30;;;1.80;;
72621;SDS011;60665;53.506;9.582;2024-02-16T05:12:40;4.53;;;1.50;;
72621;SDS011;60665;53.506;9.582;2024-02-16T05:15:06;5.97;;;1.75;;
72621;SDS011;60665;53.506;9.582;2024-02-16T05:17:32;3.17;;;1.23;;
72621;SDS011;60665;53.506;9.582;2024-02-16T05:19:57;5.25;;;1.63;;
72621;SDS011;60665;53.506;9.582;2024-02-16T05:22:22;4.60;;;1.83;;
72621;SDS011;60665;53.506;9.582;2024-02-16T05:24:48;4.13;;;1.67;;
72621;SDS011;60665;53.506;9.582;2024-02-16T05:27:13;3.65;;;1.52;;
72621;SDS011;60665;53.506;9.582;2024-02-16T05:29:39;3.42;;;1.40;;
72621;SDS011;60665;53.506;9.582;2024-02-16T05:32:04;4.28;;;1.52;;
72621;SDS011;60665;53.506;9.582;2024-02-16T05:34:29;4.35;;;1.63;;
72621;SDS011;60665;53.506;9.582;2024-02-16T05:37:02;5.05;;;1.65;;
72621;SDS011;60665;53.506;9.582;2024-02-16T05:39:28;4.22;;;1.50;;
72621;SDS011;60665;53.506;9.582;2024-02-16T05:41:56;4.07;;;1.65;;
72621;SDS011;60665;53.506;9.582;2024-02-16T05:44:21;4.45;;;1.40;;
72621;SDS011;60665;53.506;9.582;2024-02-16T05:46:47;3.40;;;1.20;;
72621;SDS011;60665;53.506;9.582;2024-02-16T05:49:13;4.28;;;2.10;;
72621;SDS011;60665;53.506;9.582;2024-02-16T05:51:38;4.35;;;1.42;;
72621;SDS011;60665;53.506;9.582;2024-02-16T05:54:07;5.32;;;1.45;;
72621;SDS011;60665;53.506;9.582;2024-02-16T05:56:35;6.47;;;1.75;;
72621;SDS011;60665;53.506;9.582;2024-02-16T05:59:04;3.58;;;1.40;;
72621;SDS011;60665;53.506;9.582;2024-02-16T06:01:29;3.55;;;1.23;;
72621;SDS011;60665;53.506;9.582;2024-02-16T06:03:55;5.18;;;1.67;;
72621;SDS011;60665;53.506;9.582;2024-02-16T06:06:20;4.13;;;1.70;;
72621;SDS011;60665;53.506;9.582;2024-02-16T06:08:45;5.00;;;1.90;;
72621;SDS011;60665;53.506;9.582;2024-02-16T06:11:10;3.42;;;1.58;;
72621;SDS011;60665;53.506;9.582;2024-02-16T06:13:36;4.35;;;1.50;;
72621;SDS011;60665;53.506;9.582;2024-02-16T06:16:04;5.53;;;1.70;;
72621;SDS011;60665;53.506;9.582;2024-02-16T06:18:29;3.20;;;1.40;;
72621;SDS011;60665;53.506;9.582;2024-02-16T06:20:55;4.97;;;1.60;;
72621;SDS011;60665;53.506;9.582;2024-02-16T06:23:20;3.78;;;1.52;;
72621;SDS011;60665;53.506;9.582;2024-02-16T06:25:45;4.20;;;1.52;;
72621;SDS011;60665;53.506;9.582;2024-02-16T06:28:11;3.53;;;1.58;;
72621;SDS011;60665;53.506;9.582;2024-02-16T06:30:36;3.20;;;1.53;;
72621;SDS011;60665;53.506;9.582;2024-02-16T06:33:01;4.47;;;1.40;;
72621;SDS011;60665;53.506;9.582;2024-02-16T06:35:27;3.22;;;1.48;;
72621;SDS011;60665;53.506;9.582;2024-02-16T06:37:52;4.20;;;1.48;;
72621;SDS011;60665;53.506;9.582;2024-02-16T06:40:18;6.38;;;1.38;;
72621;SDS011;60665;53.506;9.582;2024-02-16T06:42:43;6.53;;;1.73;;
72621;SDS011;60665;53.506;9.582;2024-02-16T06:45:09;4.67;;;1.53;;
72621;SDS011;60665;53.506;9.582;2024-02-16T06:47:34;3.70;;;1.48;;
72621;SDS011;60665;53.506;9.582;2024-02-16T06:49:59;11.10;;;1.80;;
72621;SDS011;60665;53.506;9.582;2024-02-16T06:52:25;5.63;;;1.60;;
72621;SDS011;60665;53.506;9.582;2024-02-16T06:54:50;4.90;;;1.30;;
72621;SDS011;60665;53.506;9.582;2024-02-16T06:57:16;5.50;;;1.50;;
72621;SDS011;60665;53.506;9.582;2024-02-16T06:59:42;6.38;;;1.80;;
72621;SDS011;60665;53.506;9.582;2024-02-16T07:02:07;3.90;;;1.53;;
72621;SDS011;60665;53.506;9.582;2024-02-16T07:04:34;5.70;;;1.50;;
72621;SDS011;60665;53.506;9.582;2024-02-16T07:06:59;3.90;;;1.33;;
72621;SDS011;60665;53.506;9.582;2024-02-16T07:09:24;4.37;;;1.70;;
72621;SDS011;60665;53.506;9.582;2024-02-16T07:11:50;4.23;;;1.43;;
72621;SDS011;60665;53.506;9.582;2024-02-16T07:14:16;6.05;;;1.45;;
72621;SDS011;60665;53.506;9.582;2024-02-16T07:16:41;4.75;;;1.50;;
72621;SDS011;60665;53.506;9.582;2024-02-16T07:19:07;3.13;;;1.33;;
72621;SDS011;60665;53.506;9.582;2024-02-16T07:21:32;6.95;;;1.48;;
72621;SDS011;60665;53.506;9.582;2024-02-16T07:23:57;5.57;;;1.43;;
72621;SDS011;60665;53.506;9.582;2024-02-16T07:26:23;3.65;;;1.20;;
72621;SDS011;60665;53.506;9.582;2024-02-16T07:28:48;6.05;;;1.50;;
72621;SDS011;60665;53.506;9.582;2024-02-16T07:31:14;4.00;;;1.40;;
72621;SDS011;60665;53.506;9.582;2024-02-16T07:33:39;6.22;;;1.55;;
72621;SDS011;60665;53.506;9.582;2024-02-16T07:36:05;5.63;;;1.50;;
72621;SDS011;60665;53.506;9.582;2024-02-16T07:38:30;3.83;;;1.50;;
72621;SDS011;60665;53.506;9.582;2024-02-16T07:40:55;3.55;;;1.35;;
72621;SDS011;60665;53.506;9.582;2024-02-16T07:43:20;3.73;;;1.20;;
72621;SDS011;60665;53.506;9.582;2024-02-16T07:45:49;6.90;;;1.50;;
72621;SDS011;60665;53.506;9.582;2024-02-16T07:48:14;3.45;;;1.55;;
72621;SDS011;60665;53.506;9.582;2024-02-16T07:50:40;4.10;;;1.40;;
72621;SDS011;60665;53.506;9.582;2024-02-16T07:53:05;3.75;;;1.30;;
72621;SDS011;60665;53.506;9.582;2024-02-16T07:55:31;3.20;;;1.33;;
72621;SDS011;60665;53.506;9.582;2024-02-16T07:57:56;4.13;;;1.27;;
72621;SDS011;60665;53.506;9.582;2024-02-16T08:00:21;4.45;;;1.52;;
72621;SDS011;60665;53.506;9.582;2024-02-16T08:02:47;4.10;;;1.67;;
72621;SDS011;60665;53.506;9.582;2024-02-16T08:05:12;3.72;;;1.50;;
72621;SDS011;60665;53.506;9.582;2024-02-16T08:07:38;8.77;;;1.60;;
72621;SDS011;60665;53.506;9.582;2024-02-16T08:10:03;5.32;;;1.27;;
72621;SDS011;60665;53.506;9.582;2024-02-16T08:12:29;3.15;;;1.30;;
72621;SDS011;60665;53.506;9.582;2024-02-16T08:14:56;5.60;;;1.33;;
72621;SDS011;60665;53.506;9.582;2024-02-16T08:17:23;5.65;;;1.55;;
72621;SDS011;60665;53.506;9.582;2024-02-16T08:19:51;5.82;;;1.52;;
72621;SDS011;60665;53.506;9.582;2024-02-16T08:22:17;3.58;;;1.25;;
72621;SDS011;60665;53.506;9.582;2024-02-16T08:24:43;3.73;;;1.30;;
72621;SDS011;60665;53.506;9.582;2024-02-16T08:27:11;4.05;;;1.30;;
72621;SDS011;60665;53.506;9.582;2024-02-16T08:29:37;4.45;;;1.23;;
72621;SDS011;60665;53.506;9.582;2024-02-16T08:32:03;4.10;;;1.33;;
72621;SDS011;60665;53.506;9.582;2024-02-16T08:34:29;3.05;;;1.13;;
72621;SDS011;60665;53.506;9.582;2024-02-16T08:36:54;5.38;;;1.45;;
72621;SDS011;60665;53.506;9.582;2024-02-16T08:39:20;3.13;;;1.45;;
72621;SDS011;60665;53.506;9.582;2024-02-16T08:41:45;2.85;;;1.23;;
72621;SDS011;60665;53.506;9.582;2024-02-16T08:44:13;3.72;;;1.20;;
72621;SDS011;60665;53.506;9.582;2024-02-16T08:46:38;5.63;;;1.40;;
72621;SDS011;60665;53.506;9.582;2024-02-16T08:49:04;6.40;;;1.38;;
72621;SDS011;60665;53.506;9.582;2024-02-16T08:51:31;5.03;;;1.58;;
72621;SDS011;60665;53.506;9.582;2024-02-16T08:53:56;4.15;;;1.30;;
72621;SDS011;60665;53.506;9.582;2024-02-16T08:56:22;5.20;;;1.50;;
72621;SDS011;60665;53.506;9.582;2024-02-16T08:58:47;5.20;;;1.50;;
72621;SDS011;60665;53.506;9.582;2024-02-16T09:01:12;3.40;;;1.30;;
72621;SDS011;60665;53.506;9.582;2024-02-16T09:03:38;3.42;;;1.30;;
72621;SDS011;60665;53.506;9.582;2024-02-16T09:06:03;6.13;;;1.50;;
72621;SDS011;60665;53.506;9.582;2024-02-16T09:08:28;3.08;;;1.35;;
72621;SDS011;60665;53.506;9.582;2024-02-16T09:11:01;3.72;;;1.50;;
72621;SDS011;60665;53.506;9.582;2024-02-16T09:13:31;4.45;;;1.40;;
72621;SDS011;60665;53.506;9.582;2024-02-16T09:15:56;4.68;;;1.40;;
72621;SDS011;60665;53.506;9.582;2024-02-16T09:18:22;2.70;;;1.23;;
72621;SDS011;60665;53.506;9.582;2024-02-16T09:20:47;4.47;;;1.35;;
72621;SDS011;60665;53.506;9.582;2024-02-16T09:23:12;5.15;;;1.45;;
72621;SDS011;60665;53.506;9.582;2024-02-16T09:25:37;5.03;;;1.27;;
72621;SDS011;60665;53.506;9.582;2024-02-16T09:28:03;5.22;;;1.38;;
72621;SDS011;60665;53.506;9.582;2024-02-16T09:30:28;3.03;;;1.38;;
72621;SDS011;60665;53.506;9.582;2024-02-16T09:32:54;3.45;;;1.20;;
72621;SDS011;60665;53.506;9.582;2024-02-16T09:35:26;4.57;;;1.42;;
72621;SDS011;60665;53.506;9.582;2024-02-16T09:37:52;3.88;;;1.35;;
72621;SDS011;60665;53.506;9.582;2024-02-16T09:40:17;3.58;;;1.23;;
72621;SDS011;60665;53.506;9.582;2024-02-16T09:42:47;7.55;;;1.58;;
72621;SDS011;60665;53.506;9.582;2024-02-16T09:45:12;7.70;;;1.50;;
72621;SDS011;60665;53.506;9.582;2024-02-16T09:47:40;7.20;;;1.30;;
72621;SDS011;60665;53.506;9.582;2024-02-16T09:50:06;3.17;;;1.38;;
72621;SDS011;60665;53.506;9.582;2024-02-16T09:52:32;3.67;;;1.50;;
72621;SDS011;60665;53.506;9.582;2024-02-16T09:54:58;5.88;;;1.30;;
72621;SDS011;60665;53.506;9.582;2024-02-16T09:57:23;4.22;;;1.35;;
72621;SDS011;60665;53.506;9.582;2024-02-16T09:59:48;2.38;;;1.00;;
72621;SDS011;60665;53.506;9.582;2024-02-16T10:02:14;5.10;;;1.30;;
72621;SDS011;60665;53.506;9.582;2024-02-16T10:04:39;3.53;;;1.33;;
72621;SDS011;60665;53.506;9.582;2024-02-16T10:07:04;5.55;;;1.15;;
72621;SDS011;60665;53.506;9.582;2024-02-16T10:11:58;2.47;;;1.15;;
72621;SDS011;60665;53.506;9.582;2024-02-16T10:14:23;4.07;;;1.50;;
72621;SDS011;60665;53.506;9.582;2024-02-16T10:17:03;4.55;;;1.48;;
72621;SDS011;60665;53.506;9.582;2024-02-16T10:19:29;2.72;;;0.93;;
72621;SDS011;60665;53.506;9.582;2024-02-16T10:22:10;3.67;;;1.30;;
72621;SDS011;60665;53.506;9.582;2024-02-16T10:24:35;2.85;;;1.08;;
72621;SDS011;60665;53.506;9.582;2024-02-16T10:27:03;5.20;;;1.20;;
72621;SDS011;60665;53.506;9.582;2024-02-16T10:29:29;2.80;;;1.05;;
72621;SDS011;60665;53.506;9.582;2024-02-16T10:31:55;2.72;;;1.13;;
72621;SDS011;60665;53.506;9.582;2024-02-16T10:34:20;3.20;;;1.13;;
72621;SDS011;60665;53.506;9.582;2024-02-16T10:36:47;3.60;;;1.20;;
72621;SDS011;60665;53.506;9.582;2024-02-16T10:39:13;3.58;;;1.33;;
72621;SDS011;60665;53.506;9.582;2024-02-16T10:41:40;4.38;;;1.50;;
72621;SDS011;60665;53.506;9.582;2024-02-16T10:44:06;3.58;;;1.40;;
72621;SDS011;60665;53.506;9.582;2024-02-16T10:46:31;3.53;;;1.20;;
72621;SDS011;60665;53.506;9.582;2024-02-16T10:48:57;4.28;;;1.40;;
72621;SDS011;60665;53.506;9.582;2024-02-16T10:51:28;3.15;;;1.40;;
72621;SDS011;60665;53.506;9.582;2024-02-16T10:53:55;3.63;;;1.00;;
72621;SDS011;60665;53.506;9.582;2024-02-16T10:56:32;3.35;;;1.33;;
72621;SDS011;60665;53.506;9.582;2024-02-16T10:58:59;3.63;;;1.27;;
72621;SDS011;60665;53.506;9.582;2024-02-16T11:01:25;3.90;;;1.23;;
72621;SDS011;60665;53.506;9.582;2024-02-16T11:03:50;5.03;;;1.40;;
72621;SDS011;60665;53.506;9.582;2024-02-16T11:06:25;5.75;;;1.42;;
72621;SDS011;60665;53.506;9.582;2024-02-16T11:08:50;3.73;;;1.67;;
72621;SDS011;60665;53.506;9.582;2024-02-16T11:11:22;3.95;;;1.52;;
72621;SDS011;60665;53.506;9.582;2024-02-16T11:13:48;5.22;;;1.40;;
72621;SDS011;60665;53.506;9.582;2024-02-16T11:16:13;5.80;;;1.43;;
72621;SDS011;60665;53.506;9.582;2024-02-16T11:18:39;4.40;;;1.50;;
72621;SDS011;60665;53.506;9.582;2024-02-16T11:21:05;4.72;;;1.60;;
72621;SDS011;60665;53.506;9.582;2024-02-16T11:23:32;4.50;;;1.48;;
72621;SDS011;60665;53.506;9.582;2024-02-16T11:28:28;5.38;;;1.85;;
72621;SDS011;60665;53.506;9.582;2024-02-16T11:30:54;4.40;;;1.42;;
72621;SDS011;60665;53.506;9.582;2024-02-16T11:33:19;4.18;;;1.60;;
72621;SDS011;60665;53.506;9.582;2024-02-16T11:35:57;3.90;;;1.50;;
72621;SDS011;60665;53.506;9.582;2024-02-16T11:38:23;3.47;;;1.52;;
72621;SDS011;60665;53.506;9.582;2024-02-16T11:40:58;5.05;;;1.70;;
72621;SDS011;60665;53.506;9.582;2024-02-16T11:43:24;5.07;;;1.70;;
72621;SDS011;60665;53.506;9.582;2024-02-16T11:45:50;6.88;;;1.77;;
72621;SDS011;60665;53.506;9.582;2024-02-16T11:48:19;3.83;;;1.73;;
72621;SDS011;60665;53.506;9.582;2024-02-16T11:50:46;2.70;;;1.30;;
72621;SDS011;60665;53.506;9.582;2024-02-16T11:53:14;5.63;;;1.98;;
72621;SDS011;60665;53.506;9.582;2024-02-16T11:55:40;6.40;;;1.80;;
72621;SDS011;60665;53.506;9.582;2024-02-16T11:58:10;5.10;;;1.77;;
72621;SDS011;60665;53.506;9.582;2024-02-16T12:00:36;7.07;;;1.95;;
72621;SDS011;60665;53.506;9.582;2024-02-16T12:03:01;6.18;;;1.70;;
72621;SDS011;60665;53.506;9.582;2024-02-16T12:05:27;5.75;;;2.00;;
72621;SDS011;60665;53.506;9.582;2024-02-16T12:07:52;4.43;;;2.00;;
72621;SDS011;60665;53.506;9.582;2024-02-16T12:10:17;3.87;;;1.70;;
72621;SDS011;60665;53.506;9.582;2024-02-16T12:12:42;7.57;;;2.00;;
72621;SDS011;60665;53.506;9.582;2024-02-16T12:15:08;4.00;;;1.60;;
72621;SDS011;60665;53.506;9.582;2024-02-16T12:17:35;5.15;;;2.00;;
72621;SDS011;60665;53.506;9.582;2024-02-16T12:20:00;6.30;;;2.43;;
72621;SDS011;60665;53.506;9.582;2024-02-16T12:22:25;4.00;;;1.90;;
72621;SDS011;60665;53.506;9.582;2024-02-16T12:24:51;4.97;;;1.97;;
72621;SDS011;60665;53.506;9.582;2024-02-16T12:27:16;11.32;;;1.90;;
72621;SDS011;60665;53.506;9.582;2024-02-16T12:29:41;5.53;;;1.90;;
72621;SDS011;60665;53.506;9.582;2024-02-16T12:32:07;6.38;;;2.45;;
72621;SDS011;60665;53.506;9.582;2024-02-16T12:34:34;5.00;;;1.60;;
72621;SDS011;60665;53.506;9.582;2024-02-16T12:36:59;5.05;;;1.92;;
72621;SDS011;60665;53.506;9.582;2024-02-16T12:39:25;5.63;;;2.00;;
72621;SDS011;60665;53.506;9.582;2024-02-16T12:41:50;6.93;;;1.87;;
72621;SDS011;60665;53.506;9.582;2024-02-16T12:44:15;5.77;;;1.83;;
72621;SDS011;60665;53.506;9.582;2024-02-16T12:46:40;5.70;;;2.20;;
72621;SDS011;60665;53.506;9.582;2024-02-16T12:49:07;4.90;;;2.33;;
72621;SDS011;60665;53.506;9.582;2024-02-16T12:51:33;6.43;;;2.10;;
72621;SDS011;60665;53.506;9.582;2024-02-16T12:53:58;6.72;;;2.15;;
72621;SDS011;60665;53.506;9.582;2024-02-16T12:56:25;5.82;;;1.95;;
72621;SDS011;60665;53.506;9.582;2024-02-16T12:58:51;4.90;;;2.10;;
72621;SDS011;60665;53.506;9.582;2024-02-16T13:01:16;6.53;;;2.40;;
72621;SDS011;60665;53.506;9.582;2024-02-16T13:03:43;5.57;;;2.35;;
72621;SDS011;60665;53.506;9.582;2024-02-16T13:06:08;6.30;;;2.33;;
72621;SDS011;60665;53.506;9.582;2024-02-16T13:08:33;4.47;;;2.20;;
72621;SDS011;60665;53.506;9.582;2024-02-16T13:10:59;5.80;;;2.15;;
72621;SDS011;60665;53.506;9.582;2024-02-16T13:13:25;4.78;;;1.90;;
72621;SDS011;60665;53.506;9.582;2024-02-16T13:15:50;5.18;;;2.15;;
72621;SDS011;60665;53.506;9.582;2024-02-16T13:18:16;5.32;;;2.25;;
72621;SDS011;60665;53.506;9.582;2024-02-16T13:20:41;5.53;;;2.30;;
72621;SDS011;60665;53.506;9.582;2024-02-16T13:23:07;4.80;;;2.42;;
72621;SDS011;60665;53.506;9.582;2024-02-16T13:25:32;7.07;;;2.63;;
72621;SDS011;60665;53.506;9.582;2024-02-16T13:27:57;5.97;;;2.83;;
72621;SDS011;60665;53.506;9.582;2024-02-16T13:30:24;5.70;;;2.40;;
72621;SDS011;60665;53.506;9.582;2024-02-16T13:32:49;6.43;;;2.43;;
72621;SDS011;60665;53.506;9.582;2024-02-16T13:35:15;6.50;;;2.70;;
72621;SDS011;60665;53.506;9.582;2024-02-16T13:37:40;6.05;;;2.45;;
72621;SDS011;60665;53.506;9.582;2024-02-16T13:40:08;7.03;;;2.67;;
72621;SDS011;60665;53.506;9.582;2024-02-16T13:42:38;6.22;;;2.85;;
72621;SDS011;60665;53.506;9.582;2024-02-16T13:45:03;8.82;;;2.60;;
72621;SDS011;60665;53.506;9.582;2024-02-16T13:47:28;6.70;;;2.60;;
72621;SDS011;60665;53.506;9.582;2024-02-16T13:49:54;4.90;;;2.80;;
72621;SDS011;60665;53.506;9.582;2024-02-16T13:52:21;7.75;;;2.67;;
72621;SDS011;60665;53.506;9.582;2024-02-16T13:54:47;8.43;;;2.70;;
72621;SDS011;60665;53.506;9.582;2024-02-16T13:57:13;8.13;;;2.90;;
72621;SDS011;60665;53.506;9.582;2024-02-16T13:59:38;8.63;;;3.17;;
72621;SDS011;60665;53.506;9.582;2024-02-16T14:02:03;6.07;;;2.70;;
72621;SDS011;60665;53.506;9.582;2024-02-16T14:04:29;8.38;;;3.15;;
72621;SDS011;60665;53.506;9.582;2024-02-16T14:06:54;7.22;;;2.75;;
72621;SDS011;60665;53.506;9.582;2024-02-16T14:09:19;7.20;;;2.67;;
72621;SDS011;60665;53.506;9.582;2024-02-16T14:11:45;6.95;;;2.55;;
72621;SDS011;60665;53.506;9.582;2024-02-16T14:14:10;7.35;;;3.05;;
72621;SDS011;60665;53.506;9.582;2024-02-16T14:16:36;6.40;;;3.00;;
72621;SDS011;60665;53.506;9.582;2024-02-16T14:19:01;7.95;;;3.10;;
72621;SDS011;60665;53.506;9.582;2024-02-16T14:21:27;7.15;;;2.88;;
72621;SDS011;60665;53.506;9.582;2024-02-16T14:23:52;6.87;;;2.80;;
72621;SDS011;60665;53.506;9.582;2024-02-16T14:26:17;10.20;;;3.40;;
72621;SDS011;60665;53.506;9.582;2024-02-16T14:28:44;6.78;;;3.03;;
72621;SDS011;60665;53.506;9.582;2024-02-16T14:31:09;7.93;;;3.47;;
72621;SDS011;60665;53.506;9.582;2024-02-16T14:33:35;7.70;;;3.60;;
72621;SDS011;60665;53.506;9.582;2024-02-16T14:36:01;8.20;;;3.45;;
72621;SDS011;60665;53.506;9.582;2024-02-16T14:38:26;9.57;;;3.75;;
72621;SDS011;60665;53.506;9.582;2024-02-16T14:40:52;8.27;;;3.33;;
72621;SDS011;60665;53.506;9.582;2024-02-16T14:43:18;10.17;;;3.60;;
72621;SDS011;60665;53.506;9.582;2024-02-16T14:45:43;7.87;;;3.73;;